Time;durP1;ratioP1;P1;durP2;ratioP2;P2;SDS_P1;SDS_P2;PMS_P1;PMS_P2;Temp;Humidity;BMP_temperature;BMP_pressure;BME280_temperature;BME280_humidity;BME280_pressure;Samples;Min_cycle;Max_cycle;Signal;HPM_P1;HPM_P2
2021/10/24 00:01:00;;;;;;;;;6.00;4.00;;;;;21.28;40.96;102082.06;5006930;28;51264;-50
2021/10/24 00:03:25;;;;;;;;;8.25;6.50;;;;;21.27;41.11;102074.00;5005961;28;52965;-49
2021/10/24 00:05:51;;;;;;;;;8.00;7.00;;;;;21.24;41.26;102064.16;5013429;28;50928;-50
2021/10/24 00:08:17;;;;;;;;;7.25;7.00;;;;;21.25;41.46;102065.00;5007482;28;51189;-48
2021/10/24 00:10:42;;;;;;;;;5.75;5.75;;;;;21.23;41.01;102058.84;5014877;28;51275;-45
2021/10/24 00:13:08;;;;;;;;;5.25;4.75;;;;;21.23;41.39;102058.84;5007383;28;51999;-50
2021/10/24 00:15:33;;;;;;;;;8.50;6.00;;;;;21.21;40.90;102061.81;5009297;28;51230;-51
2021/10/24 00:17:58;;;;;;;;;7.50;7.50;;;;;21.21;41.01;102063.72;5008764;28;51172;-51
2021/10/24 00:20:24;;;;;;;;;9.25;5.25;;;;;21.20;41.17;102056.50;5005098;28;51113;-51
2021/10/24 00:22:49;;;;;;;;;10.00;7.00;;;;;21.19;41.42;102057.56;5006061;28;51984;-48
2021/10/24 00:25:14;;;;;;;;;6.25;6.25;;;;;21.18;41.35;102053.94;5011401;28;51108;-51
2021/10/24 00:27:40;;;;;;;;;7.00;6.50;;;;;21.16;41.05;102047.78;5011253;28;51066;-50
2021/10/24 00:30:06;;;;;;;;;9.00;7.25;;;;;21.15;41.52;102057.06;5009599;28;52350;-50
2021/10/24 00:32:32;;;;;;;;;8.75;8.75;;;;;21.14;41.18;102049.88;5016275;28;52429;-52
2021/10/24 00:34:57;;;;;;;;;7.25;6.25;;;;;21.13;41.65;102045.41;5013993;28;51250;-48
2021/10/24 00:37:23;;;;;;;;;8.50;6.75;;;;;21.13;41.14;102053.69;5016354;28;50990;-49
2021/10/24 00:39:48;;;;;;;;;7.25;7.25;;;;;21.12;41.55;102049.22;5005969;28;51305;-47
2021/10/24 00:42:13;;;;;;;;;9.00;8.00;;;;;21.11;41.34;102042.00;5005205;28;51002;-52
2021/10/24 00:44:39;;;;;;;;;8.25;8.00;;;;;21.10;41.27;102040.31;4998343;28;51136;-49
2021/10/24 00:47:06;;;;;;;;;9.25;7.25;;;;;21.09;41.71;102041.34;5016086;28;51048;-53
2021/10/24 00:49:33;;;;;;;;;7.00;7.00;;;;;21.09;41.06;102049.63;5007988;28;51178;-51
2021/10/24 00:51:59;;;;;;;;;6.25;6.25;;;;;21.08;41.69;102042.41;5009396;28;51031;-51
2021/10/24 00:54:26;;;;;;;;;13.25;10.00;;;;;21.09;41.14;102046.00;5006886;28;51543;-50
2021/10/24 00:56:55;;;;;;;;;7.50;6.25;;;;;21.07;41.57;102043.47;5006076;28;51114;-51
2021/10/24 00:59:22;;;;;;;;;7.00;6.00;;;;;21.06;41.61;102033.50;4997934;28;51316;-50
2021/10/24 01:01:48;;;;;;;;;7.50;7.50;;;;;21.06;41.52;102038.16;4996930;28;51079;-48
2021/10/24 01:04:13;;;;;;;;;8.00;8.00;;;;;21.04;41.39;102041.94;4997265;28;51167;-48
2021/10/24 01:06:40;;;;;;;;;11.50;8.25;;;;;21.04;41.32;102032.81;4996703;28;51512;-51
2021/10/24 01:09:12;;;;;;;;;10.75;7.75;;;;;21.03;41.33;102040.22;4998562;28;51172;-52
2021/10/24 01:11:38;;;;;;;;;7.75;7.75;;;;;21.03;41.29;102031.13;5001971;28;51294;-52
2021/10/24 01:14:03;;;;;;;;;6.00;6.00;;;;;21.02;41.24;102037.69;5013260;28;51114;-45
2021/10/24 01:16:34;;;;;;;;;6.00;5.25;;;;;21.01;41.07;102031.31;4998022;28;52633;-52
2021/10/24 01:19:02;;;;;;;;;7.00;6.00;;;;;21.00;41.24;102028.75;5000981;28;51060;-49
2021/10/24 01:21:27;;;;;;;;;6.25;6.25;;;;;20.99;41.17;102029.81;5014418;28;51941;-51
2021/10/24 01:23:53;;;;;;;;;6.00;5.25;;;;;20.98;41.29;102031.72;5001721;28;50897;-51
2021/10/24 01:26:19;;;;;;;;;5.50;4.75;;;;;20.97;41.47;102030.03;5007645;28;51347;-51
2021/10/24 01:28:45;;;;;;;;;9.00;6.00;;;;;20.95;41.33;102015.59;5007838;28;51049;-49
2021/10/24 01:31:10;;;;;;;;;7.00;7.00;;;;;20.95;41.38;102020.25;5012131;28;51019;-49
2021/10/24 01:33:36;;;;;;;;;0.25;0.25;;;;;20.95;41.34;102014.75;4991558;28;51552;-49
2021/10/24 01:36:10;;;;;;;;;6.75;4.25;;;;;20.95;41.64;102017.50;5009111;28;51145;-48
2021/10/24 01:38:37;;;;;;;;;6.75;6.75;;;;;20.93;41.71;102006.66;4999424;28;51217;-51
2021/10/24 01:41:06;;;;;;;;;5.50;5.50;;;;;20.92;41.16;102004.09;5008766;28;52591;-51
2021/10/24 01:43:32;;;;;;;;;8.00;5.00;;;;;20.92;41.43;102001.34;5013590;28;51275;-49
2021/10/24 01:45:58;;;;;;;;;7.00;7.00;;;;;20.91;41.33;101999.63;5015701;28;51028;-51
2021/10/24 01:48:24;;;;;;;;;5.00;4.75;;;;;20.90;41.62;101998.78;5011953;28;51391;-51
2021/10/24 01:50:50;;;;;;;;;6.00;6.00;;;;;20.89;41.31;101988.81;5002010;28;51085;-49
2021/10/24 01:53:24;;;;;;;;;5.00;5.00;;;;;20.89;41.14;101982.47;5003579;28;51199;-51
2021/10/24 01:55:50;;;;;;;;;5.50;5.50;;;;;20.88;41.67;101978.88;5015393;28;51345;-48
2021/10/24 01:58:16;;;;;;;;;6.25;5.25;;;;;20.88;41.38;101969.75;5005430;28;50936;-50
2021/10/24 02:00:42;;;;;;;;;6.25;6.25;;;;;20.87;41.58;101971.66;5009031;28;51437;-52
2021/10/24 02:03:09;;;;;;;;;5.50;5.50;;;;;20.86;41.54;101972.72;5006822;28;51362;-47
2021/10/24 02:05:34;;;;;;;;;6.25;5.00;;;;;20.85;41.39;101961.91;5006073;28;51156;-51
2021/10/24 02:08:01;;;;;;;;;5.00;3.75;;;;;20.85;41.52;101953.63;5005336;28;51016;-51
2021/10/24 02:10:26;;;;;;;;;3.25;3.25;;;;;20.85;41.18;101953.63;5011693;28;51783;-46
2021/10/24 02:12:52;;;;;;;;;6.00;5.00;;;;;20.82;41.59;101951.25;5016085;28;50861;-50
2021/10/24 02:15:17;;;;;;;;;4.25;3.75;;;;;20.82;41.78;101948.50;5016154;28;51258;-48
2021/10/24 02:17:43;;;;;;;;;4.00;4.00;;;;;20.81;41.55;101941.28;5014049;28;51290;-50
2021/10/24 02:20:09;;;;;;;;;6.75;5.25;;;;;20.79;41.85;101943.41;5004076;28;52157;-50
2021/10/24 02:22:36;;;;;;;;;6.00;5.00;;;;;20.80;41.46;101936.84;5014437;28;51382;-50
2021/10/24 02:25:02;;;;;;;;;5.00;4.50;;;;;20.80;41.93;101934.09;5012752;28;51057;-51
2021/10/24 02:27:28;;;;;;;;;8.00;5.50;;;;;20.78;41.48;101930.69;5004359;28;51119;-51
2021/10/24 02:29:53;;;;;;;;;7.25;6.00;;;;;20.78;41.60;101925.16;5011011;28;51370;-46
2021/10/24 02:32:18;;;;;;;;;4.50;4.50;;;;;20.79;41.71;101932.38;5011138;28;51014;-52
2021/10/24 02:34:44;;;;;;;;;6.00;4.25;;;;;20.78;41.42;101930.69;5008992;28;51139;-50
2021/10/24 02:37:09;;;;;;;;;6.25;5.75;;;;;20.76;41.63;101928.13;5009445;28;51498;-47
2021/10/24 02:39:35;;;;;;;;;4.50;4.50;;;;;20.75;41.59;101927.28;5011922;28;51119;-49
2021/10/24 02:42:00;;;;;;;;;6.25;5.50;;;;;20.74;41.83;101922.81;5004061;28;51230;-50
2021/10/24 02:44:26;;;;;;;;;5.75;4.25;;;;;20.74;41.47;101931.09;5011558;28;52379;-45
2021/10/24 02:46:53;;;;;;;;;2.75;2.75;;;;;20.73;41.46;101921.09;5014583;28;51101;-51
2021/10/24 02:49:18;;;;;;;;;5.00;5.00;;;;;20.73;41.45;101923.00;5010015;28;51125;-51
2021/10/24 02:51:45;;;;;;;;;5.00;4.00;;;;;20.73;41.55;101923.00;5004542;28;51093;-48
2021/10/24 02:54:10;;;;;;;;;5.25;5.25;;;;;20.71;41.40;101920.44;5010430;28;51441;-50
2021/10/24 02:56:35;;;;;;;;;4.50;4.50;;;;;20.71;41.53;101914.94;5002152;28;51368;-51
2021/10/24 02:59:01;;;;;;;;;6.25;3.50;;;;;20.71;41.57;101912.19;5009682;28;51889;-51
2021/10/24 03:01:26;;;;;;;;;3.00;3.00;;;;;20.70;41.68;101901.38;5008169;28;51251;-51
2021/10/24 03:03:52;;;;;;;;;5.75;4.00;;;;;20.69;41.47;101900.53;5003374;28;51161;-49
2021/10/24 03:06:17;;;;;;;;;3.25;3.25;;;;;20.67;41.58;101897.13;5004767;28;51295;-50
2021/10/24 03:08:43;;;;;;;;;4.50;4.50;;;;;20.67;41.44;101897.13;5006362;28;51040;-48
2021/10/24 03:11:08;;;;;;;;;4.50;2.50;;;;;20.67;41.47;101899.88;5010841;28;51060;-49
2021/10/24 03:13:33;;;;;;;;;2.50;2.50;;;;;20.66;41.70;101906.44;5013420;28;51086;-48
2021/10/24 03:15:59;;;;;;;;;4.75;4.75;;;;;20.66;41.71;101900.09;5007519;28;51026;-49
2021/10/24 03:18:24;;;;;;;;;7.75;5.00;;;;;20.64;41.77;101903.03;5015170;28;51727;-49
2021/10/24 03:20:49;;;;;;;;;3.25;3.25;;;;;20.65;41.49;101903.88;5001635;28;51329;-51
2021/10/24 03:23:15;;;;;;;;;4.00;4.00;;;;;20.65;41.77;101898.38;4996590;28;51297;-51
2021/10/24 03:25:40;;;;;;;;;3.75;3.00;;;;;20.64;41.61;101904.94;5006889;28;51138;-51
2021/10/24 03:28:05;;;;;;;;;4.75;4.00;;;;;20.63;41.61;101903.22;5006501;28;51944;-52
2021/10/24 03:30:31;;;;;;;;;2.25;2.25;;;;;20.62;41.76;101898.75;5003263;28;51138;-45
2021/10/24 03:32:57;;;;;;;;;3.75;3.75;;;;;20.61;41.82;101897.06;5005931;28;51319;-50
2021/10/24 03:35:22;;;;;;;;;2.75;2.75;;;;;20.60;41.90;101901.72;5011993;28;51403;-50
2021/10/24 03:37:48;;;;;;;;;3.00;2.25;;;;;20.60;41.61;101896.19;5014574;28;51909;-49
2021/10/24 03:40:13;;;;;;;;;3.00;2.75;;;;;20.60;41.80;101903.63;5009977;28;51054;-51
2021/10/24 03:42:39;;;;;;;;;4.25;3.25;;;;;20.59;41.76;101911.03;4999920;28;51099;-50
2021/10/24 03:45:06;;;;;;;;;3.75;2.25;;;;;20.59;41.87;101905.50;4998912;28;51226;-50
2021/10/24 03:47:31;;;;;;;;;5.75;5.00;;;;;20.58;41.89;101903.81;4998272;28;52096;-49
2021/10/24 03:49:56;;;;;;;;;3.50;2.50;;;;;20.59;41.96;101910.16;4981903;28;51262;-49
2021/10/24 03:52:22;;;;;;;;;4.25;3.50;;;;;20.58;41.57;101912.06;5006353;28;51193;-50
2021/10/24 03:54:47;;;;;;;;;3.00;2.50;;;;;20.57;42.12;101912.28;5005491;28;51075;-51
2021/10/24 03:57:13;;;;;;;;;3.00;3.00;;;;;20.57;41.87;101912.28;5017644;28;51723;-48
2021/10/24 03:59:39;;;;;;;;;4.50;3.50;;;;;20.56;41.82;101911.44;5013355;28;51157;-49
2021/10/24 04:02:05;;;;;;;;;5.00;3.75;;;;;20.57;41.45;101917.78;4998227;28;51297;-48
2021/10/24 04:04:30;;;;;;;;;4.25;3.50;;;;;20.55;41.78;101909.72;4998628;28;51476;-50
2021/10/24 04:06:55;;;;;;;;;3.50;3.50;;;;;20.54;42.02;101919.03;4998117;28;51791;-47
2021/10/24 04:09:21;;;;;;;;;3.00;3.00;;;;;20.55;41.88;101925.38;5010873;28;51108;-50
2021/10/24 04:11:47;;;;;;;;;2.00;2.00;;;;;20.54;41.55;101923.69;4998416;28;51135;-51
2021/10/24 04:14:13;;;;;;;;;3.75;2.75;;;;;20.53;42.03;101927.47;4999537;28;51063;-49
2021/10/24 04:16:38;;;;;;;;;3.00;3.00;;;;;20.52;41.71;101931.25;5000537;28;51531;-48
2021/10/24 04:19:03;;;;;;;;;4.00;3.50;;;;;20.52;41.65;101929.38;5010471;28;51108;-50
2021/10/24 04:21:29;;;;;;;;;2.25;2.00;;;;;20.51;41.83;101929.56;5006194;28;51104;-47
2021/10/24 04:23:54;;;;;;;;;4.00;3.00;;;;;20.51;42.14;101935.06;5006314;28;51139;-48
2021/10/24 04:26:20;;;;;;;;;4.50;3.25;;;;;20.50;41.50;101931.47;5011028;28;51022;-49
2021/10/24 04:28:45;;;;;;;;;4.50;4.00;;;;;20.50;41.61;101925.13;5007728;28;51078;-50
2021/10/24 04:31:11;;;;;;;;;3.00;3.00;;;;;20.49;41.51;101924.25;5011996;28;51073;-52
2021/10/24 04:33:37;;;;;;;;;5.50;4.00;;;;;20.49;41.75;101924.25;5011788;28;51147;-45
2021/10/24 04:36:02;;;;;;;;;2.00;2.00;;;;;20.47;41.84;101923.63;5006247;28;51761;-49
2021/10/24 04:38:29;;;;;;;;;5.00;3.00;;;;;20.47;41.88;101929.13;5010240;28;51091;-48
2021/10/24 04:40:54;;;;;;;;;3.00;3.00;;;;;20.46;41.56;101920.00;4997614;28;51123;-47
2021/10/24 04:43:20;;;;;;;;;2.25;2.00;;;;;20.46;42.05;101922.75;4997946;28;51143;-47
2021/10/24 04:45:45;;;;;;;;;3.25;3.25;;;;;20.45;41.84;101920.22;5002208;28;51050;-50
2021/10/24 04:48:11;;;;;;;;;3.00;3.00;;;;;20.45;41.62;101921.06;5002179;28;51085;-49
2021/10/24 04:50:37;;;;;;;;;2.00;2.00;;;;;20.44;41.81;101913.84;5006017;28;50988;-48
2021/10/24 04:53:06;;;;;;;;;4.00;3.00;;;;;20.43;41.66;101912.16;5005747;28;51430;-51
2021/10/24 04:55:32;;;;;;;;;3.00;3.00;;;;;20.43;41.44;101909.41;5004992;28;51139;-52
2021/10/24 04:57:57;;;;;;;;;4.50;3.50;;;;;20.43;41.88;101908.56;5006535;28;51137;-51
2021/10/24 05:00:23;;;;;;;;;3.00;3.00;;;;;20.42;41.87;101906.78;5004742;28;51271;-52
2021/10/24 05:02:48;;;;;;;;;2.00;2.00;;;;;20.42;41.64;101912.28;5004515;28;51136;-46
2021/10/24 05:05:13;;;;;;;;;3.00;3.00;;;;;20.41;41.58;101905.09;4979811;28;52994;-51
2021/10/24 05:07:39;;;;;;;;;2.00;2.00;;;;;20.40;41.72;101901.47;4999702;28;51125;-50
2021/10/24 05:10:05;;;;;;;;;4.00;3.00;;;;;20.40;41.69;101904.22;4998702;28;51305;-49
2021/10/24 05:12:30;;;;;;;;;3.00;3.00;;;;;20.40;41.86;101909.75;4997682;28;51159;-50
2021/10/24 05:14:55;;;;;;;;;5.00;4.00;;;;;20.40;41.55;101908.88;4997090;28;51078;-51
2021/10/24 05:17:21;;;;;;;;;3.75;3.00;;;;;20.40;41.72;101904.22;4998276;28;51028;-47
2021/10/24 05:19:46;;;;;;;;;4.75;3.50;;;;;20.39;41.73;101897.03;4997036;28;51040;-49
2021/10/24 05:22:12;;;;;;;;;4.00;4.00;;;;;20.38;41.52;101899.97;4997316;28;51276;-51
2021/10/24 05:24:37;;;;;;;;;5.50;4.75;;;;;20.37;42.13;101893.63;5006671;28;51265;-50
2021/10/24 05:27:03;;;;;;;;;3.00;3.00;;;;;20.37;41.73;101890.88;5006986;28;51090;-49
2021/10/24 05:29:28;;;;;;;;;3.00;3.00;;;;;20.36;41.82;101891.06;4999105;28;51167;-49
2021/10/24 05:31:54;;;;;;;;;4.00;3.25;;;;;20.35;41.80;101887.47;5010783;28;51364;-49
2021/10/24 05:34:19;;;;;;;;;3.25;3.00;;;;;20.35;41.41;101884.72;5006857;28;51122;-51
2021/10/24 05:36:45;;;;;;;;;3.50;2.50;;;;;20.34;41.50;101885.78;5001880;28;51161;-48
2021/10/24 05:39:10;;;;;;;;;4.00;2.50;;;;;20.34;41.65;101888.53;5012057;28;51131;-49
2021/10/24 05:41:35;;;;;;;;;3.25;2.00;;;;;20.34;41.77;101887.69;5011938;28;50943;-50
2021/10/24 05:44:01;;;;;;;;;2.25;2.25;;;;;20.34;41.75;101896.78;5011707;28;51801;-51
2021/10/24 05:46:27;;;;;;;;;3.75;3.00;;;;;20.33;41.53;101883.22;5007462;28;51029;-50
2021/10/24 05:48:53;;;;;;;;;4.75;3.75;;;;;20.32;41.62;101885.13;5012117;28;51171;-46
2021/10/24 05:51:19;;;;;;;;;3.25;3.25;;;;;20.32;41.92;101887.88;5001183;28;51323;-50
2021/10/24 05:53:44;;;;;;;;;3.00;2.50;;;;;20.32;42.02;101887.00;5001894;28;51105;-49
2021/10/24 05:56:09;;;;;;;;;5.25;4.00;;;;;20.31;41.78;101886.16;5008170;28;51093;-50
2021/10/24 05:58:35;;;;;;;;;4.25;3.50;;;;;20.30;41.83;101889.94;4998266;28;51138;-50
2021/10/24 06:01:00;;;;;;;;;2.00;2.00;;;;;20.29;42.17;101880.00;5013440;28;51048;-49
2021/10/24 06:03:25;;;;;;;;;4.00;4.00;;;;;20.29;41.86;101877.25;5012529;28;51098;-49
2021/10/24 06:05:51;;;;;;;;;4.25;3.75;;;;;20.30;41.44;101880.84;5003123;28;51134;-46
2021/10/24 06:08:23;;;;;;;;;3.75;3.75;;;;;20.29;41.75;101874.50;5002998;28;51269;-50
2021/10/24 06:10:54;;;;;;;;;5.00;3.50;;;;;20.28;41.39;101880.19;5000438;28;51144;-49
2021/10/24 06:13:20;;;;;;;;;4.00;3.50;;;;;20.28;41.52;101882.94;5007337;28;52011;-50
2021/10/24 06:15:47;;;;;;;;;5.00;3.25;;;;;20.27;41.77;101879.34;5002751;28;51054;-50
2021/10/24 06:18:12;;;;;;;;;5.00;4.50;;;;;20.27;41.72;101878.50;4999331;28;51202;-52
2021/10/24 06:20:38;;;;;;;;;3.50;3.00;;;;;20.26;41.64;101874.88;5000530;28;51145;-52
2021/10/24 06:23:03;;;;;;;;;4.25;3.00;;;;;20.25;41.76;101875.94;4999623;28;52245;-49
2021/10/24 06:25:29;;;;;;;;;3.00;3.00;;;;;20.25;41.86;101870.44;5012615;28;51201;-52
2021/10/24 06:27:54;;;;;;;;;4.00;3.25;;;;;20.25;41.43;101872.34;4999781;28;51271;-49
2021/10/24 06:30:23;;;;;;;;;3.50;3.50;;;;;20.25;41.65;101875.09;5002393;28;51240;-50
2021/10/24 06:32:50;;;;;;;;;5.50;3.00;;;;;20.24;41.54;101877.00;4996285;28;51792;-48
2021/10/24 06:35:15;;;;;;;;;3.75;3.75;;;;;20.24;41.81;101867.88;5014965;28;51255;-51
2021/10/24 06:37:43;;;;;;;;;2.75;2.75;;;;;20.22;41.67;101875.47;5003182;28;50998;-47
2021/10/24 06:40:10;;;;;;;;;3.75;3.75;;;;;20.22;42.00;101875.47;5008131;28;51121;-46
2021/10/24 06:42:36;;;;;;;;;3.75;3.00;;;;;20.21;41.94;101868.25;4995726;28;51003;-50
2021/10/24 06:45:03;;;;;;;;;3.50;2.00;;;;;20.19;41.49;101869.31;5001713;28;50958;-49
2021/10/24 06:47:28;;;;;;;;;3.00;3.00;;;;;20.20;41.78;101872.91;5014027;28;51016;-49
2021/10/24 06:49:54;;;;;;;;;4.00;3.25;;;;;20.19;41.63;101866.56;5015737;28;51148;-49
2021/10/24 06:52:19;;;;;;;;;2.00;2.00;;;;;20.19;41.71;101876.72;5009026;28;51726;-50
2021/10/24 06:54:44;;;;;;;;;4.75;2.75;;;;;20.18;41.68;101867.59;5014626;28;50995;-49
2021/10/24 06:57:10;;;;;;;;;3.25;3.25;;;;;20.18;41.70;101875.00;4996018;28;50967;-50
2021/10/24 06:59:39;;;;;;;;;4.50;3.25;;;;;20.17;41.80;101868.66;4996998;28;51349;-52
2021/10/24 07:02:05;;;;;;;;;3.00;3.00;;;;;20.16;41.69;101871.59;4997608;28;51879;-52
2021/10/24 07:04:30;;;;;;;;;4.00;4.00;;;;;20.16;41.77;101875.22;5006721;28;51188;-51
2021/10/24 07:06:56;;;;;;;;;5.25;4.25;;;;;20.14;41.65;101871.81;5008687;28;52266;-48
2021/10/24 07:09:21;;;;;;;;;6.50;6.25;;;;;20.14;40.83;101869.06;5004771;28;51116;-49
2021/10/24 07:11:46;;;;;;;;;9.50;7.75;;;;;20.12;40.42;101876.66;4999730;28;51043;-50
2021/10/24 07:14:11;;;;;;;;;7.25;6.25;;;;;20.11;40.26;101865.81;5004641;28;51136;-51
2021/10/24 07:16:37;;;;;;;;;8.00;6.00;;;;;20.09;40.51;101870.69;5009853;28;51188;-50
2021/10/24 07:19:02;;;;;;;;;4.50;4.25;;;;;20.15;40.03;101867.16;5010056;28;50912;-50
2021/10/24 07:21:28;;;;;;;;;5.00;4.50;;;;;20.21;40.49;101863.59;5016045;28;51985;-49
2021/10/24 07:23:53;;;;;;;;;6.75;6.75;;;;;20.28;40.36;101863.69;5003596;28;51097;-48
2021/10/24 07:26:18;;;;;;;;;5.25;4.75;;;;;20.36;40.40;101869.06;5008907;28;51276;-48
2021/10/24 07:28:44;;;;;;;;;7.00;4.50;;;;;20.44;40.58;101874.47;5003391;28;51259;-51
2021/10/24 07:31:09;;;;;;;;;4.75;4.00;;;;;20.52;40.29;101874.31;5008113;28;51387;-50
2021/10/24 07:33:34;;;;;;;;;4.50;4.00;;;;;20.60;40.48;101881.59;5014680;28;51164;-50
2021/10/24 07:36:00;;;;;;;;;4.00;3.75;;;;;20.67;40.13;101869.59;5011015;28;51278;-51
2021/10/24 07:38:25;;;;;;;;;3.75;3.25;;;;;20.74;39.94;101870.50;5006593;28;51235;-49
2021/10/24 07:40:51;;;;;;;;;3.00;3.00;;;;;20.82;40.31;101865.88;5007802;28;52029;-50
2021/10/24 07:43:21;;;;;;;;;5.25;4.50;;;;;20.88;40.37;101870.59;5005560;28;51146;-49
2021/10/24 07:45:50;;;;;;;;;3.50;1.75;;;;;20.95;40.29;101864.09;5005200;28;51373;-45
2021/10/24 07:48:17;;;;;;;;;4.00;3.50;;;;;21.04;40.26;101868.38;5004644;28;51264;-50
2021/10/24 07:50:43;;;;;;;;;3.25;3.25;;;;;21.10;40.38;101865.88;4998172;28;51830;-50
2021/10/24 07:53:10;;;;;;;;;6.25;5.25;;;;;21.18;39.94;101860.22;5007810;28;51240;-50
2021/10/24 07:55:35;;;;;;;;;5.25;4.75;;;;;21.25;39.99;101859.19;5009632;28;52223;-51
2021/10/24 07:58:02;;;;;;;;;6.00;6.00;;;;;21.31;39.85;101858.41;5005411;28;51403;-47
2021/10/24 08:00:27;;;;;;;;;5.00;5.00;;;;;21.39;39.94;101856.56;4990289;28;53080;-48
2021/10/24 08:02:53;;;;;;;;;6.00;5.50;;;;;21.45;39.96;101852.97;5017035;28;51122;-46
2021/10/24 08:05:18;;;;;;;;;6.25;5.25;;;;;21.52;39.45;101846.44;5010849;28;51136;-50
2021/10/24 08:07:44;;;;;;;;;5.75;5.00;;;;;21.58;39.55;101853.91;5012015;28;51331;-48
2021/10/24 08:10:11;;;;;;;;;5.00;5.00;;;;;21.64;39.33;101846.69;5004586;28;51173;-49
2021/10/24 08:12:40;;;;;;;;;5.25;4.25;;;;;21.68;39.32;101845.25;5006580;28;51152;-50
2021/10/24 08:15:08;;;;;;;;;6.00;5.75;;;;;21.73;38.88;101845.47;5006722;28;51081;-49
2021/10/24 08:17:34;;;;;;;;;8.25;6.50;;;;;21.77;38.68;101843.97;5006060;28;51472;-52
2021/10/24 08:19:59;;;;;;;;;5.75;4.50;;;;;21.82;38.74;101846.97;4999566;28;52131;-49
2021/10/24 08:22:25;;;;;;;;;5.25;3.00;;;;;21.86;38.45;101851.00;4998302;28;51111;-53
2021/10/24 08:24:51;;;;;;;;;5.25;5.00;;;;;21.88;38.70;101845.28;5001663;28;51537;-51
2021/10/24 08:27:17;;;;;;;;;7.25;5.75;;;;;21.90;38.29;101845.94;5002167;28;51383;-46
2021/10/24 08:29:43;;;;;;;;;7.00;5.00;;;;;21.93;38.39;101850.19;5003369;28;51148;-49
2021/10/24 08:32:10;;;;;;;;;6.50;4.75;;;;;21.97;38.72;101851.47;5013327;28;51194;-47
2021/10/24 08:34:37;;;;;;;;;8.00;5.00;;;;;21.99;38.22;101860.38;5017744;28;51354;-50
2021/10/24 08:37:03;;;;;;;;;5.00;5.00;;;;;21.96;38.30;101858.03;5001316;28;51225;-53
2021/10/24 08:39:30;;;;;;;;;5.25;4.00;;;;;21.95;38.57;101867.38;5002373;28;51544;-51
2021/10/24 08:41:56;;;;;;;;;4.25;4.25;;;;;21.90;38.87;101859.75;5003353;28;51396;-53
2021/10/24 08:44:24;;;;;;;;;4.00;4.00;;;;;21.85;38.75;101860.34;4999883;28;51215;-51
2021/10/24 08:46:50;;;;;;;;;5.75;5.00;;;;;21.80;38.91;101856.53;5001828;28;51386;-52
2021/10/24 08:49:15;;;;;;;;;5.00;4.75;;;;;21.76;39.17;101853.31;5006283;28;51977;-52
2021/10/24 08:51:41;;;;;;;;;4.75;4.75;;;;;21.72;39.41;101854.78;5001579;28;51193;-48
2021/10/24 08:54:08;;;;;;;;;3.75;3.75;;;;;21.69;39.56;101846.09;5011840;28;51270;-50
2021/10/24 08:56:34;;;;;;;;;0.75;0.00;;;;;21.66;39.31;101863.88;5008026;28;51289;-52
2021/10/24 08:59:00;;;;;;;;;4.25;4.25;;;;;21.64;39.60;101865.16;5004220;28;51978;-50
2021/10/24 09:01:27;;;;;;;;;3.50;3.50;;;;;21.61;39.24;101858.13;5004635;28;51154;-53
2021/10/24 09:04:09;;;;;;;;;10.00;6.00;;;;;21.59;39.80;101852.84;5006619;28;51019;-51
2021/10/24 09:06:56;;;;;;;;;6.00;5.00;;;;;21.58;39.27;101845.63;5008178;28;51038;-50
2021/10/24 09:09:33;;;;;;;;;3.25;3.00;;;;;21.56;39.45;101835.84;5008670;28;52427;-48
2021/10/24 09:12:02;;;;;;;;;6.25;4.50;;;;;21.54;39.63;101827.78;5017141;28;51035;-51
2021/10/24 09:14:35;;;;;;;;;5.50;5.00;;;;;21.53;39.25;101831.59;5016583;28;51042;-51
2021/10/24 09:17:01;;;;;;;;;6.75;6.00;;;;;21.50;39.66;101815.47;5017252;28;51010;-50
2021/10/24 09:19:36;;;;;;;;;8.75;5.25;;;;;21.50;39.70;101814.63;5016591;28;51527;-51
2021/10/24 09:22:23;;;;;;;;;7.75;6.00;;;;;21.50;39.77;101809.09;5016586;28;51155;-54
2021/10/24 09:25:01;;;;;;;;;4.25;4.25;;;;;21.48;39.39;101806.56;5007375;28;50987;-52
2021/10/24 09:27:31;;;;;;;;;4.50;4.00;;;;;21.48;39.46;101808.47;5000704;28;51416;-49
2021/10/24 09:30:34;;;;;;;;;5.00;5.00;;;;;21.47;39.55;101804.00;4999884;28;51938;-50
2021/10/24 09:33:04;;;;;;;;;3.25;3.25;;;;;21.45;39.52;101804.19;4975823;28;51253;-50
2021/10/24 09:35:33;;;;;;;;;4.25;4.00;;;;;21.46;39.40;101799.53;5001944;28;51051;-48
2021/10/24 09:38:03;;;;;;;;;4.25;4.25;;;;;21.45;39.44;101795.91;4999884;28;51239;-50
2021/10/24 09:40:34;;;;;;;;;5.50;5.00;;;;;21.45;39.42;101803.34;4978557;28;51256;-48
2021/10/24 09:43:27;;;;;;;;;6.00;4.25;;;;;21.45;39.25;101798.69;4996526;28;51381;-50
2021/10/24 09:45:55;;;;;;;;;6.50;5.75;;;;;21.45;38.89;101806.09;4993912;28;51073;-51
2021/10/24 09:48:21;;;;;;;;;5.75;5.75;;;;;21.44;38.81;101810.75;4996636;28;51281;-52
2021/10/24 09:50:55;;;;;;;;;5.00;4.25;;;;;21.44;39.11;101812.66;4978626;28;51762;-52
2021/10/24 09:53:23;;;;;;;;;5.00;5.00;;;;;21.45;39.29;101811.63;4999927;28;51546;-52
2021/10/24 09:55:57;;;;;;;;;5.00;5.00;;;;;21.45;39.18;101812.47;5007020;28;51046;-50
2021/10/24 09:58:28;;;;;;;;;6.75;5.50;;;;;21.44;39.13;101815.44;5003858;28;51172;-51
2021/10/24 10:00:54;;;;;;;;;6.00;4.00;;;;;21.45;38.78;101814.38;4984959;28;53188;-53
2021/10/24 10:03:21;;;;;;;;;8.50;4.50;;;;;21.44;39.12;101810.75;5006005;28;51395;-52
2021/10/24 10:05:46;;;;;;;;;5.75;5.75;;;;;21.45;38.79;101803.34;5011904;28;51181;-50
2021/10/24 10:08:12;;;;;;;;;5.75;4.00;;;;;21.46;38.62;101803.13;5012157;28;51384;-50
2021/10/24 10:10:41;;;;;;;;;5.25;5.25;;;;;21.47;39.02;101801.25;5006676;28;51159;-52
2021/10/24 10:13:12;;;;;;;;;5.25;5.25;;;;;21.47;38.65;101809.53;5015370;28;51465;-51
2021/10/24 10:15:40;;;;;;;;;6.75;5.00;;;;;21.47;39.11;101806.78;5015738;28;51034;-51
2021/10/24 10:18:06;;;;;;;;;6.25;4.25;;;;;21.47;38.54;101802.09;5015333;28;51412;-51
2021/10/24 10:20:35;;;;;;;;;4.75;4.75;;;;;21.48;39.11;101805.72;5002860;28;51887;-52
2021/10/24 10:23:07;;;;;;;;;3.50;3.50;;;;;21.48;38.76;101803.81;5003743;28;51468;-47
2021/10/24 10:25:34;;;;;;;;;4.75;4.75;;;;;21.49;38.51;101804.66;5006513;28;51255;-47
2021/10/24 10:28:00;;;;;;;;;5.00;5.00;;;;;21.49;38.37;101813.78;5004188;28;51173;-48
2021/10/24 10:30:36;;;;;;;;;4.25;4.25;;;;;21.50;38.64;101814.63;5000590;28;51866;-50
2021/10/24 10:33:34;;;;;;;;;4.75;4.75;;;;;21.49;38.93;101810.16;4995503;28;51413;-51
2021/10/24 10:36:06;;;;;;;;;5.50;5.50;;;;;21.50;38.98;101809.09;4996055;28;51007;-49
2021/10/24 10:38:37;;;;;;;;;7.50;3.75;;;;;21.51;38.91;101805.28;5001812;28;51199;-48
2021/10/24 10:41:04;;;;;;;;;5.75;5.75;;;;;21.51;38.36;101808.91;5012640;28;51707;-52
2021/10/24 10:43:29;;;;;;;;;6.00;5.50;;;;;21.51;38.90;101803.38;5014464;28;51125;-52
2021/10/24 10:45:57;;;;;;;;;6.00;6.00;;;;;21.50;38.70;101801.69;5014799;28;51472;-51
2021/10/24 10:48:43;;;;;;;;;7.00;7.00;;;;;21.50;38.90;101809.09;5002153;28;51340;-52
2021/10/24 10:51:16;;;;;;;;;7.00;5.25;;;;;21.50;38.89;101803.59;5002467;28;51796;-51
2021/10/24 10:53:44;;;;;;;;;5.00;5.00;;;;;21.50;38.56;101809.97;5002581;28;51352;-54
2021/10/24 10:56:12;;;;;;;;;6.75;6.00;;;;;21.48;38.59;101812.06;5002872;28;51011;-51
2021/10/24 10:58:40;;;;;;;;;7.75;5.00;;;;;21.49;38.68;101819.28;5000082;28;51165;-52
2021/10/24 11:01:18;;;;;;;;;7.50;5.75;;;;;21.48;38.26;101811.22;4995078;28;51976;-51
2021/10/24 11:03:48;;;;;;;;;5.50;5.50;;;;;21.47;38.80;101806.78;4994706;28;51084;-51
2021/10/24 11:06:22;;;;;;;;;6.50;6.00;;;;;21.45;38.77;101808.84;5007447;28;51062;-49
2021/10/24 11:09:00;;;;;;;;;8.25;8.25;;;;;21.45;38.55;101803.34;4996054;28;51027;-52
2021/10/24 11:11:39;;;;;;;;;5.00;4.00;;;;;21.44;38.57;101809.91;4994367;28;51162;-51
2021/10/24 11:14:11;;;;;;;;;7.00;7.00;;;;;21.44;38.40;101808.00;4994560;28;51126;-49
2021/10/24 11:16:50;;;;;;;;;5.50;5.25;;;;;21.42;38.41;101801.00;5002678;28;51140;-51
2021/10/24 11:21:55;;;;;;;;;7.00;6.00;;;;;21.41;38.93;101796.56;5003143;28;51942;-50
2021/10/24 11:24:22;;;;;;;;;8.25;7.00;;;;;21.41;38.38;101807.59;5001986;28;51129;-51
2021/10/24 11:26:57;;;;;;;;;9.00;7.75;;;;;21.40;38.51;101803.97;5007598;28;51293;-53